createdAt,value
2018-02-14T00:01:18.756Z,-2.60
2018-02-14T00:03:46.362Z,-2.60
2018-02-14T00:06:14.740Z,-2.60
2018-02-14T00:08:43.083Z,-2.70
2018-02-14T00:11:10.695Z,-2.70
2018-02-14T00:13:39.152Z,-2.70
2018-02-14T00:16:06.754Z,-2.70
2018-02-14T00:18:34.333Z,-2.50
2018-02-14T00:21:01.949Z,-2.40
2018-02-14T00:23:29.525Z,-2.30
2018-02-14T00:25:58.011Z,-2.40
2018-02-14T00:28:25.788Z,-2.50
2018-02-14T00:30:53.377Z,-2.60
2018-02-14T00:33:21.891Z,-2.70
2018-02-14T00:35:49.495Z,-2.60
2018-02-14T00:38:17.121Z,-2.60
2018-02-14T00:40:44.715Z,-2.60
2018-02-14T00:43:12.288Z,-2.40
2018-02-14T00:45:39.873Z,-2.50
2018-02-14T00:48:08.229Z,-2.70
2018-02-14T00:50:36.265Z,-2.70
2018-02-14T00:53:03.866Z,-2.70
2018-02-14T00:55:31.476Z,-2.70
2018-02-14T00:57:59.072Z,-2.80
2018-02-14T01:00:27.474Z,-2.70
2018-02-14T01:02:55.880Z,-2.70
2018-02-14T01:05:23.494Z,-2.80
2018-02-14T01:07:51.853Z,-2.80
2018-02-14T01:10:19.505Z,-2.90
2018-02-14T01:12:47.120Z,-2.80
2018-02-14T01:15:15.498Z,-2.70
2018-02-14T01:17:43.868Z,-2.80
2018-02-14T01:20:12.230Z,-2.80
2018-02-14T01:22:40.668Z,-2.90
2018-02-14T01:25:08.251Z,-2.90
2018-02-14T01:27:36.417Z,-2.90
2018-02-14T01:30:04.057Z,-2.80
2018-02-14T01:32:31.655Z,-2.80
2018-02-14T01:34:59.267Z,-2.90
2018-02-14T01:37:26.864Z,-3.00
2018-02-14T01:39:54.485Z,-3.00
2018-02-14T01:42:22.091Z,-3.00
2018-02-14T01:44:49.672Z,-3.00
2018-02-14T01:47:17.736Z,-2.90
2018-02-14T01:49:45.348Z,-3.10
2018-02-14T01:52:12.975Z,-3.10
2018-02-14T01:54:40.588Z,-3.20
2018-02-14T01:57:08.204Z,-3.20
2018-02-14T01:59:35.776Z,-3.20
2018-02-14T02:02:03.434Z,-3.10
2018-02-14T02:04:31.038Z,-3.10
2018-02-14T02:06:58.683Z,-3.10
2018-02-14T02:09:26.247Z,-3.10
2018-02-14T02:11:53.821Z,-3.20
2018-02-14T02:14:21.403Z,-3.30
2018-02-14T02:16:49.008Z,-3.20
2018-02-14T02:19:16.586Z,-3.20
2018-02-14T02:21:44.177Z,-3.20
2018-02-14T02:24:12.536Z,-3.40
2018-02-14T02:26:40.129Z,-3.40
2018-02-14T02:29:08.515Z,-3.40
2018-02-14T02:31:36.095Z,-3.40
2018-02-14T02:34:03.692Z,-3.40
2018-02-14T02:36:31.284Z,-3.50
2018-02-14T02:38:58.905Z,-3.50
2018-02-14T02:41:26.494Z,-3.60
2018-02-14T02:43:54.136Z,-3.40
2018-02-14T02:46:21.716Z,-3.40
2018-02-14T02:48:56.198Z,-3.40
2018-02-14T02:51:24.704Z,-3.50
2018-02-14T02:53:52.323Z,-3.50
2018-02-14T02:56:19.926Z,-3.50
2018-02-14T02:58:48.306Z,-3.60
2018-02-14T03:01:16.656Z,-3.60
2018-02-14T03:03:44.262Z,-3.70
2018-02-14T03:06:11.861Z,-3.70
2018-02-14T03:08:39.460Z,-3.70
2018-02-14T03:11:07.094Z,-3.80
2018-02-14T03:13:34.729Z,-3.70
2018-02-14T03:16:02.323Z,-3.80
2018-02-14T03:18:30.026Z,-3.80
2018-02-14T03:20:57.673Z,-3.80
2018-02-14T03:23:25.242Z,-3.70
2018-02-14T03:25:52.858Z,-3.80
2018-02-14T03:28:20.425Z,-3.90
2018-02-14T03:30:48.042Z,-3.80
2018-02-14T03:33:15.659Z,-3.90
2018-02-14T03:35:43.513Z,-3.80
2018-02-14T03:38:11.110Z,-3.80
2018-02-14T03:40:38.718Z,-3.90
2018-02-14T03:43:06.310Z,-3.90
2018-02-14T03:45:33.935Z,-3.90
2018-02-14T03:48:01.517Z,-4.00
2018-02-14T03:50:29.154Z,-4.00
2018-02-14T03:52:56.750Z,-4.00
2018-02-14T03:55:25.249Z,-4.10
2018-02-14T03:57:52.841Z,-4.00
2018-02-14T04:00:20.470Z,-3.90
2018-02-14T04:02:48.168Z,-4.00
2018-02-14T04:05:15.786Z,-4.00
2018-02-14T04:07:44.164Z,-3.90
2018-02-14T04:10:13.473Z,-4.00
2018-02-14T04:12:41.047Z,-4.00
2018-02-14T04:15:08.674Z,-4.10
2018-02-14T04:17:37.009Z,-4.10
2018-02-14T04:20:04.596Z,-4.10
2018-02-14T04:22:32.166Z,-4.10
2018-02-14T04:24:59.788Z,-3.90
2018-02-14T04:27:27.377Z,-4.00
2018-02-14T04:29:54.981Z,-4.10
2018-02-14T04:32:22.650Z,-4.30
2018-02-14T04:34:50.262Z,-4.30
2018-02-14T04:37:18.606Z,-4.30
2018-02-14T04:39:46.247Z,-4.30
2018-02-14T04:42:13.848Z,-4.20
2018-02-14T04:44:41.436Z,-4.20
2018-02-14T04:47:09.030Z,-4.30
2018-02-14T04:49:36.626Z,-4.40
2018-02-14T04:52:04.230Z,-4.40
2018-02-14T04:54:31.809Z,-4.40
2018-02-14T04:56:59.447Z,-4.40
2018-02-14T04:59:27.022Z,-4.30
2018-02-14T05:01:54.642Z,-4.20
2018-02-14T05:04:22.989Z,-4.30
2018-02-14T05:06:50.607Z,-4.30
2018-02-14T05:09:18.172Z,-4.30
2018-02-14T05:11:45.781Z,-4.30
2018-02-14T05:14:13.384Z,-4.40
2018-02-14T05:16:40.978Z,-4.50
2018-02-14T05:19:08.553Z,-4.60
2018-02-14T05:21:36.161Z,-4.70
2018-02-14T05:24:03.771Z,-4.70
2018-02-14T05:26:31.399Z,-4.70
2018-02-14T05:28:58.982Z,-4.60
2018-02-14T05:31:26.623Z,-4.50
2018-02-14T05:33:54.189Z,-4.50
2018-02-14T05:36:22.564Z,-4.60
2018-02-14T05:38:50.316Z,-4.70
2018-02-14T05:41:18.467Z,-4.70
2018-02-14T05:43:47.828Z,-4.70
2018-02-14T05:46:17.234Z,-4.70
2018-02-14T05:48:46.541Z,-4.60
2018-02-14T05:51:15.226Z,-4.70
2018-02-14T05:53:43.917Z,-4.70
2018-02-14T05:56:12.561Z,-4.70
2018-02-14T05:58:40.300Z,-4.70
2018-02-14T06:01:09.758Z,-4.60
2018-02-14T06:03:37.538Z,-4.60
2018-02-14T06:06:05.144Z,-4.60
2018-02-14T06:08:32.744Z,-4.70
2018-02-14T06:11:00.315Z,-4.70
2018-02-14T06:13:28.716Z,-4.70
2018-02-14T06:15:56.285Z,-4.70
2018-02-14T06:18:23.879Z,-4.60
2018-02-14T06:20:51.485Z,-4.80
2018-02-14T06:23:19.090Z,-4.80
2018-02-14T06:25:46.710Z,-4.80
2018-02-14T06:28:14.316Z,-4.80
2018-02-14T06:30:41.932Z,-4.90
2018-02-14T06:33:09.554Z,-4.90
2018-02-14T06:35:37.150Z,-4.90
2018-02-14T06:38:05.107Z,-4.80
2018-02-14T06:40:32.798Z,-4.70
2018-02-14T06:43:00.432Z,-4.70
2018-02-14T06:45:28.008Z,-4.80
2018-02-14T06:47:55.630Z,-4.80
2018-02-14T06:50:23.981Z,-4.50
2018-02-14T06:52:51.580Z,-4.50
2018-02-14T06:55:19.186Z,-4.60
2018-02-14T06:57:46.803Z,-4.70
2018-02-14T07:00:14.444Z,-4.80
2018-02-14T07:02:42.036Z,-4.80
2018-02-14T07:05:09.841Z,-4.60
2018-02-14T07:07:37.504Z,-4.70
2018-02-14T07:10:05.110Z,-4.70
2018-02-14T07:12:33.451Z,-4.70
2018-02-14T07:15:01.072Z,-4.70
2018-02-14T07:17:28.664Z,-4.60
2018-02-14T07:19:56.262Z,-4.60
2018-02-14T07:22:23.864Z,-4.70
2018-02-14T07:24:51.474Z,-4.70
2018-02-14T07:27:19.044Z,-4.80
2018-02-14T07:29:46.679Z,-4.70
2018-02-14T07:32:14.254Z,-4.60
2018-02-14T07:34:41.866Z,-4.60
2018-02-14T07:37:09.428Z,-4.60
2018-02-14T07:39:37.788Z,-4.50
2018-02-14T07:42:05.386Z,-4.60
2018-02-14T07:44:33.723Z,-4.50
2018-02-14T07:47:01.289Z,-4.50
2018-02-14T07:49:28.888Z,-4.20
2018-02-14T07:51:56.470Z,-3.50
2018-02-14T07:54:24.855Z,-2.00
2018-02-14T07:56:52.442Z,-2.00
2018-02-14T07:59:20.053Z,-1.30
2018-02-14T08:01:47.643Z,-0.60
2018-02-14T08:04:16.131Z,0.20
2018-02-14T08:06:43.747Z,0.80
2018-02-14T08:09:11.319Z,1.50
2018-02-14T08:11:38.935Z,2.00
2018-02-14T08:14:06.515Z,2.60
2018-02-14T08:16:34.109Z,3.10
2018-02-14T08:19:02.436Z,4.20
2018-02-14T08:21:30.042Z,4.10
2018-02-14T08:23:57.856Z,4.60
2018-02-14T08:26:25.452Z,5.10
2018-02-14T08:28:53.796Z,6.20
2018-02-14T08:31:21.388Z,6.20
2018-02-14T08:33:48.988Z,6.50
2018-02-14T08:36:16.586Z,6.90
2018-02-14T08:38:44.162Z,7.50
2018-02-14T08:41:11.831Z,8.10
2018-02-14T08:43:40.165Z,8.60
2018-02-14T08:46:07.781Z,8.60
2018-02-14T08:48:36.366Z,9.30
2018-02-14T08:51:04.050Z,9.30
2018-02-14T08:53:31.638Z,9.60
2018-02-14T08:56:00.317Z,9.90
2018-02-14T08:58:27.891Z,10.50
2018-02-14T09:00:56.267Z,11.00
2018-02-14T09:03:23.877Z,11.30
2018-02-14T09:05:51.865Z,11.60
2018-02-14T09:08:19.429Z,11.70
2018-02-14T09:10:47.017Z,12.00
2018-02-14T09:13:14.621Z,12.20
2018-02-14T09:15:42.236Z,12.40
2018-02-14T09:18:09.801Z,13.00
2018-02-14T09:20:37.403Z,13.40
2018-02-14T09:23:04.968Z,13.80
2018-02-14T09:25:32.581Z,13.70
2018-02-14T09:28:00.159Z,13.60
2018-02-14T09:30:28.488Z,14.40
2018-02-14T09:32:56.109Z,14.30
2018-02-14T09:35:24.459Z,14.70
2018-02-14T09:37:52.101Z,14.50
2018-02-14T09:40:20.250Z,14.80
2018-02-14T09:42:47.835Z,14.90
2018-02-14T09:45:16.175Z,15.70
2018-02-14T09:47:44.590Z,15.70
2018-02-14T09:50:12.173Z,15.60
2018-02-14T09:52:40.528Z,15.90
2018-02-14T09:55:08.122Z,15.90
2018-02-14T09:57:35.722Z,15.70
2018-02-14T10:00:03.324Z,16.10
2018-02-14T10:02:30.964Z,16.40
2018-02-14T10:04:58.577Z,16.60
2018-02-14T10:07:26.174Z,16.60
2018-02-14T10:09:53.756Z,16.90
2018-02-14T10:12:21.358Z,17.00
2018-02-14T10:14:48.935Z,16.80
2018-02-14T10:17:17.249Z,16.70
2018-02-14T10:19:44.836Z,16.70
2018-02-14T10:22:12.429Z,17.00
2018-02-14T10:24:40.277Z,17.00
2018-02-14T10:27:07.925Z,17.10
2018-02-14T10:29:35.511Z,17.40
2018-02-14T10:32:03.935Z,17.80
2018-02-14T10:34:31.516Z,17.80
2018-02-14T10:36:59.327Z,17.80
2018-02-14T10:39:26.924Z,17.60
2018-02-14T10:41:54.515Z,18.20
2018-02-14T10:44:22.087Z,18.30
2018-02-14T10:46:49.774Z,18.50
2018-02-14T10:49:17.356Z,18.50
2018-02-14T10:51:44.949Z,18.10
2018-02-14T10:54:12.562Z,18.50
2018-02-14T10:56:41.102Z,18.60
2018-02-14T10:59:08.719Z,18.40
2018-02-14T11:01:41.848Z,18.30
2018-02-14T11:04:14.956Z,18.40
2018-02-14T11:06:42.526Z,18.70
2018-02-14T11:09:10.905Z,18.50
2018-02-14T11:11:38.504Z,18.50
2018-02-14T11:14:06.867Z,18.50
2018-02-14T11:16:35.225Z,18.70
2018-02-14T11:19:02.859Z,18.70
2018-02-14T11:21:30.896Z,18.70
2018-02-14T11:23:58.556Z,18.90
2018-02-14T11:26:26.918Z,18.50
2018-02-14T11:28:54.545Z,18.40
2018-02-14T11:31:22.112Z,18.60
2018-02-14T11:33:49.720Z,18.40
2018-02-14T11:36:18.057Z,18.30
2018-02-14T11:38:45.665Z,18.30
2018-02-14T11:41:13.247Z,18.10
2018-02-14T11:43:40.871Z,17.50
2018-02-14T11:46:08.444Z,16.80
2018-02-14T11:48:36.055Z,16.50
2018-02-14T11:51:03.636Z,16.10
2018-02-14T11:53:31.280Z,15.70
2018-02-14T11:55:58.854Z,15.10
2018-02-14T11:58:26.444Z,14.30
2018-02-14T12:00:54.260Z,13.70
2018-02-14T12:03:22.657Z,13.80
2018-02-14T12:05:51.006Z,13.00
2018-02-14T12:08:18.581Z,13.00
2018-02-14T12:10:46.177Z,12.70
2018-02-14T12:13:13.763Z,12.20
2018-02-14T12:15:41.388Z,12.00
2018-02-14T12:18:09.725Z,11.60
2018-02-14T12:20:37.355Z,11.50
2018-02-14T12:23:04.946Z,11.30
2018-02-14T12:25:32.552Z,11.20
2018-02-14T12:28:00.158Z,11.00
2018-02-14T12:30:27.779Z,10.90
2018-02-14T12:32:55.364Z,10.50
2018-02-14T12:35:22.965Z,10.30
2018-02-14T12:37:50.532Z,10.10
2018-02-14T12:40:18.915Z,9.70
2018-02-14T12:42:47.304Z,9.60
2018-02-14T12:45:15.678Z,9.50
2018-02-14T12:47:44.021Z,9.40
2018-02-14T12:50:11.612Z,9.30
2018-02-14T12:52:39.190Z,9.30
2018-02-14T12:55:06.792Z,9.10
2018-02-14T12:57:34.365Z,9.10
2018-02-14T13:00:01.960Z,9.10
2018-02-14T13:02:29.552Z,8.80
2018-02-14T13:04:57.153Z,8.80
2018-02-14T13:07:24.719Z,8.80
2018-02-14T13:09:53.086Z,8.60
2018-02-14T13:12:20.652Z,8.50
2018-02-14T13:14:48.298Z,8.40
2018-02-14T13:17:15.881Z,8.30
2018-02-14T13:19:43.474Z,8.20
2018-02-14T13:22:11.122Z,8.40
2018-02-14T13:24:38.704Z,8.30
2018-02-14T13:27:06.296Z,8.30
2018-02-14T13:29:33.878Z,8.20
2018-02-14T13:32:02.229Z,8.10
2018-02-14T13:34:29.809Z,8.10
2018-02-14T13:36:57.411Z,8.10
2018-02-14T13:39:24.995Z,8.10
2018-02-14T13:41:52.592Z,7.90
2018-02-14T13:44:20.943Z,7.80
2018-02-14T13:46:48.561Z,7.80
2018-02-14T13:49:16.138Z,7.80
2018-02-14T13:51:43.745Z,7.70
2018-02-14T13:54:12.632Z,7.50
2018-02-14T13:56:40.300Z,7.50
2018-02-14T13:59:08.633Z,7.60
2018-02-14T14:01:36.228Z,7.50
2018-02-14T14:04:03.820Z,7.70
2018-02-14T14:06:31.603Z,7.60
2018-02-14T14:08:59.196Z,7.50
2018-02-14T14:11:26.789Z,7.50
2018-02-14T14:13:55.129Z,7.60
2018-02-14T14:16:22.724Z,7.60
2018-02-14T14:18:50.301Z,7.50
2018-02-14T14:21:17.901Z,7.50
2018-02-14T14:23:45.493Z,7.50
2018-02-14T14:26:13.101Z,7.50
2018-02-14T14:28:40.687Z,7.30
2018-02-14T14:31:08.301Z,7.30
2018-02-14T14:33:35.873Z,7.30
2018-02-14T14:36:03.457Z,7.30
2018-02-14T14:38:31.064Z,7.30
2018-02-14T14:40:58.646Z,7.20
2018-02-14T14:43:26.233Z,7.10
2018-02-14T14:45:53.801Z,7.00
2018-02-14T14:48:21.401Z,7.00
2018-02-14T14:50:48.972Z,6.90
2018-02-14T14:53:16.570Z,6.90
2018-02-14T14:55:44.169Z,7.00
2018-02-14T14:58:12.702Z,6.80
2018-02-14T15:00:40.135Z,6.80
2018-02-14T15:03:07.762Z,6.80
2018-02-14T15:05:35.337Z,6.70
2018-02-14T15:08:02.974Z,6.80
2018-02-14T15:10:30.554Z,6.70
2018-02-14T15:12:58.353Z,6.60
2018-02-14T15:15:25.923Z,6.50
2018-02-14T15:17:53.538Z,6.50
2018-02-14T15:20:21.883Z,6.40
2018-02-14T15:22:49.570Z,6.40
2018-02-14T15:25:17.139Z,6.40
2018-02-14T15:27:45.520Z,6.20
2018-02-14T15:30:13.115Z,6.20
2018-02-14T15:32:40.772Z,6.20
2018-02-14T15:35:08.340Z,6.00
2018-02-14T15:37:35.950Z,5.90
2018-02-14T15:40:04.290Z,5.90
2018-02-14T15:42:33.366Z,5.90
2018-02-14T15:45:00.981Z,5.90
2018-02-14T15:47:29.313Z,5.60
2018-02-14T15:49:56.921Z,5.60
2018-02-14T15:52:25.275Z,5.50
2018-02-14T15:54:52.888Z,5.50
2018-02-14T15:57:20.460Z,5.60
2018-02-14T15:59:48.066Z,5.30
2018-02-14T16:02:16.418Z,5.40
2018-02-14T16:04:44.018Z,5.40
2018-02-14T16:07:11.602Z,5.20
2018-02-14T16:09:39.204Z,5.10
2018-02-14T16:12:06.806Z,5.00
2018-02-14T16:14:34.427Z,4.80
2018-02-14T16:17:02.009Z,4.70
2018-02-14T16:19:29.653Z,4.30
2018-02-14T16:21:57.258Z,4.30
2018-02-14T16:24:24.869Z,4.20
2018-02-14T16:26:52.505Z,4.10
2018-02-14T16:29:20.546Z,4.10
2018-02-14T16:31:48.121Z,4.00
2018-02-14T16:34:15.704Z,3.90
2018-02-14T16:36:43.286Z,3.90
2018-02-14T16:39:11.666Z,3.50
2018-02-14T16:41:40.018Z,3.20
2018-02-14T16:44:07.616Z,3.10
2018-02-14T16:46:35.196Z,3.00
2018-02-14T16:49:02.805Z,2.90
2018-02-14T16:51:30.430Z,2.90
2018-02-14T16:53:57.986Z,2.80
2018-02-14T16:56:25.570Z,2.60
2018-02-14T16:58:53.144Z,2.50
2018-02-14T17:01:20.756Z,2.30
2018-02-14T17:03:48.328Z,2.20
2018-02-14T17:06:15.921Z,2.40
2018-02-14T17:08:43.530Z,2.60
2018-02-14T17:11:11.125Z,2.50
2018-02-14T17:13:39.171Z,2.40
2018-02-14T17:16:06.794Z,2.20
2018-02-14T17:18:34.379Z,2.30
2018-02-14T17:21:02.010Z,2.20
2018-02-14T17:23:29.617Z,1.90
2018-02-14T17:25:57.241Z,1.80
2018-02-14T17:28:24.816Z,1.80
2018-02-14T17:30:52.412Z,1.70
2018-02-14T17:33:19.982Z,1.50
2018-02-14T17:35:47.582Z,1.50
2018-02-14T17:38:16.044Z,1.60
2018-02-14T17:40:43.644Z,1.70
2018-02-14T17:43:11.222Z,1.60
2018-02-14T17:45:39.728Z,1.60
2018-02-14T17:48:07.374Z,1.20
2018-02-14T17:50:34.995Z,1.30
2018-02-14T17:53:02.563Z,1.40
2018-02-14T17:55:30.190Z,1.20
2018-02-14T17:57:58.529Z,1.20
2018-02-14T18:00:26.745Z,1.20
2018-02-14T18:02:55.243Z,0.70
2018-02-14T18:05:22.855Z,0.70
2018-02-14T18:07:50.464Z,0.80
2018-02-14T18:10:18.062Z,0.80
2018-02-14T18:12:46.588Z,0.80
2018-02-14T18:15:14.172Z,0.90
2018-02-14T18:17:41.779Z,0.60
2018-02-14T18:20:10.338Z,0.40
2018-02-14T18:22:38.083Z,0.40
2018-02-14T18:25:05.660Z,0.30
2018-02-14T18:27:33.257Z,0.50
2018-02-14T18:30:01.616Z,0.60
2018-02-14T18:32:29.242Z,0.60
2018-02-14T18:34:56.825Z,0.60
2018-02-14T18:37:24.420Z,0.50
2018-02-14T18:39:51.979Z,0.60
2018-02-14T18:42:19.603Z,0.60
2018-02-14T18:44:47.185Z,0.70
2018-02-14T18:47:14.776Z,0.80
2018-02-14T18:49:42.333Z,0.80
2018-02-14T18:52:09.962Z,0.80
2018-02-14T18:54:37.594Z,0.70
2018-02-14T18:57:05.202Z,0.70
2018-02-14T18:59:33.559Z,0.40
2018-02-14T19:02:01.920Z,0.30
2018-02-14T19:04:29.485Z,0.20
2018-02-14T19:06:57.107Z,0.10
2018-02-14T19:09:24.681Z,0.10
2018-02-14T19:11:52.297Z,0.20
2018-02-14T19:14:19.869Z,0.30
2018-02-14T19:16:47.459Z,0.40
2018-02-14T19:19:15.062Z,0.50
2018-02-14T19:21:43.429Z,0.30
2018-02-14T19:24:11.021Z,0.30
2018-02-14T19:26:39.059Z,0.20
2018-02-14T19:29:06.719Z,0.30
2018-02-14T19:31:35.059Z,0.40
2018-02-14T19:34:02.637Z,0.30
2018-02-14T19:36:30.251Z,0.20
2018-02-14T19:38:57.872Z,0.00
2018-02-14T19:41:26.002Z,0.00
2018-02-14T19:43:54.008Z,0.10
2018-02-14T19:46:21.603Z,0.00
2018-02-14T19:48:50.094Z,-0.10
2018-02-14T19:51:17.676Z,0.00
2018-02-14T19:53:45.270Z,0.00
2018-02-14T19:56:13.982Z,-0.10
2018-02-14T19:58:41.647Z,0.00
2018-02-14T20:01:09.265Z,-0.10
2018-02-14T20:03:36.891Z,-0.20
2018-02-14T20:06:04.460Z,-0.10
2018-02-14T20:08:32.065Z,-0.30
2018-02-14T20:10:59.654Z,-0.30
2018-02-14T20:13:27.259Z,-0.30
2018-02-14T20:15:54.841Z,-0.10
2018-02-14T20:18:23.254Z,-0.40
2018-02-14T20:20:50.842Z,-0.40
2018-02-14T20:23:23.061Z,-0.30
2018-02-14T20:25:50.726Z,-0.40
2018-02-14T20:28:18.315Z,-0.30
2018-02-14T20:30:46.181Z,-0.30
2018-02-14T20:33:13.897Z,-0.50
2018-02-14T20:35:41.560Z,-0.60
2018-02-14T20:38:10.052Z,-0.30
2018-02-14T20:40:37.692Z,-0.30
2018-02-14T20:43:06.078Z,-0.70
2018-02-14T20:45:33.682Z,-0.70
2018-02-14T20:48:01.264Z,-0.50
2018-02-14T20:50:28.861Z,-0.70
2018-02-14T20:52:56.540Z,-0.80
2018-02-14T20:55:24.194Z,-0.80
2018-02-14T20:57:52.632Z,-0.90
2018-02-14T21:00:20.267Z,-0.90
2018-02-14T21:02:47.854Z,-0.90
2018-02-14T21:05:15.461Z,-1.00
2018-02-14T21:07:43.196Z,-0.90
2018-02-14T21:10:10.785Z,-0.70
2018-02-14T21:12:38.713Z,-0.80
2018-02-14T21:15:07.581Z,-0.90
2018-02-14T21:17:36.196Z,-1.00
2018-02-14T21:20:03.840Z,-1.00
2018-02-14T21:22:31.572Z,-0.90
2018-02-14T21:24:59.247Z,-0.90
2018-02-14T21:27:26.836Z,-1.10
2018-02-14T21:29:54.520Z,-0.90
2018-02-14T21:32:22.322Z,-1.00
2018-02-14T21:34:50.174Z,-1.10
2018-02-14T21:37:17.753Z,-1.20
2018-02-14T21:39:45.685Z,-1.20
2018-02-14T21:42:13.446Z,-1.20
2018-02-14T21:44:42.382Z,-1.30
2018-02-14T21:47:10.180Z,-1.30
2018-02-14T21:49:38.060Z,-1.20
2018-02-14T21:52:05.770Z,-1.20
2018-02-14T21:54:34.025Z,-1.20
2018-02-14T21:57:01.773Z,-1.20
2018-02-14T21:59:30.187Z,-1.40
2018-02-14T22:01:57.957Z,-1.40
2018-02-14T22:04:25.814Z,-1.40
2018-02-14T22:06:53.484Z,-1.30
2018-02-14T22:09:21.726Z,-1.00
2018-02-14T22:11:51.702Z,-1.20
2018-02-14T22:14:19.274Z,-1.20
2018-02-14T22:16:46.878Z,-1.30
2018-02-14T22:19:14.490Z,-1.30
2018-02-14T22:21:42.860Z,-1.30
2018-02-14T22:24:10.575Z,-1.30
2018-02-14T22:26:38.167Z,-1.20
2018-02-14T22:29:05.782Z,-1.20
2018-02-14T22:31:33.389Z,-1.10
2018-02-14T22:34:00.956Z,-1.30
2018-02-14T22:36:28.571Z,-1.40
2018-02-14T22:38:56.153Z,-1.30
2018-02-14T22:41:23.757Z,-1.30
2018-02-14T22:43:51.350Z,-1.30
2018-02-14T22:46:18.941Z,-1.30
2018-02-14T22:48:46.561Z,-1.20
2018-02-14T22:51:14.151Z,-1.10
2018-02-14T22:53:41.726Z,-1.30
2018-02-14T22:56:09.332Z,-1.00
2018-02-14T22:58:36.912Z,-1.10
2018-02-14T23:01:04.536Z,-1.10
2018-02-14T23:03:32.892Z,-1.20
2018-02-14T23:06:01.256Z,-1.10
2018-02-14T23:08:28.866Z,-1.10
2018-02-14T23:10:56.734Z,-1.00
2018-02-14T23:13:25.077Z,-1.10
2018-02-14T23:15:52.845Z,-1.10
2018-02-14T23:18:20.449Z,-1.20
2018-02-14T23:20:48.032Z,-1.20
2018-02-14T23:23:15.956Z,-1.30
2018-02-14T23:25:43.593Z,-1.30
2018-02-14T23:28:11.209Z,-1.10
2018-02-14T23:30:38.780Z,-1.20
2018-02-14T23:33:06.365Z,-1.10
2018-02-14T23:35:34.731Z,-0.90
2018-02-14T23:38:02.329Z,-0.90
2018-02-14T23:40:29.892Z,-0.90
2018-02-14T23:42:57.493Z,-1.00
2018-02-14T23:45:25.063Z,-0.90
2018-02-14T23:47:52.665Z,-1.10
2018-02-14T23:50:20.261Z,-1.10
2018-02-14T23:52:47.861Z,-1.20
2018-02-14T23:55:16.200Z,-1.20
2018-02-14T23:57:43.831Z,-1.20
